Main page
METAR-TAF:

METAR-TAF

Airports :

Can Tho International Airport

Cần Thơ, Vietnam

latitude: 10-05-07N, longitude: 105-42-43E, elevation: 3 m

Current weather observation

The report was made 22 minutes ago, at 05:30 UTC
Wind 9 kt from the West, varying between South/Southwest and West/Northwest
Temperature 35°C
Humidity 63%
Pressure 1006 hPa
Visibility 10 km or more
Scattered clouds at a height of 1500 ft

METAR: VVCT 190530Z 26009KT 200V290 9999 SCT015 35/27 Q1006 NOSIG

Time: 12:52 (05:52 UTC)

Forecast

The report was made 52 minutes ago, at 05:00 UTC
Forecast valid from 19 at 06 UTC to 20 at 06 UTC
Wind 8 kt from the Southwest
Visibility 10 km or more
Scattered clouds at a height of 1700 ft
Temporary
from 19 at 08 UTC to 19 at 11 UTC
Visibility: 5000 m
Broken clouds at a height of 1500 ft
Few clouds at a height of 1700 ft, Cumulonimbus.
thunderstorm, rain,

TAF: VVCT 190500Z 1906/2006 23008KT 9999 SCT017 TEMPO 1908/1911 5000 TSRA BKN015 FEW017CB

Weather observations and forecasts of more than 4000 airports (METAR and TAF reports).

The available stations are represented by yellow and red dots on the map.

Hover mouse over dot to see the name of the station.

Then click to see weather observations and forecasts.

To change the map : click on the green buttons with a black cross to zoom in, on the green button with a dash to zoom out, or on the green arrows for adjacent maps.


METAR-TAF: